Terminal Aerodrome Forecast
Issued by NWS

Home | Current Version | Previous Version | Text Only | Print | Product List | Glossary On
Versions: 1 2 3 4 5 6 7 8 9 10 11 12 13 14 15 16 17 18 19 20 21
000
FTUS41 KPBZ 251700
TAFAGC
TAF
KAGC 251734Z 2518/2618 VRB05KT 3SM -SHSN BR OVC009
     FM252000 06005KT 2SM -SN OVC007
     FM252300 03009KT 3/4SM -SN OVC004
     FM261000 05010KT 1SM -SN BR OVC007=

USA.gov is the U.S. government's official web portal to all federal, state and local government web resources and services.